Time;durP1;ratioP1;P1;durP2;ratioP2;P2;SDS_P1;SDS_P2;PMS_P1;PMS_P2;Temp;Humidity;BMP_temperature;BMP_pressure;BME280_temperature;BME280_humidity;BME280_pressure;Samples;Min_cycle;Max_cycle;Signal;HPM_P1;HPM_P2
2022/01/13 00:02:25;;;;;;;;;;;-1.80;78.10;;;;;;5025153;28;88359;-42
2022/01/13 00:04:50;;;;;;;;;;;-1.80;78.20;;;;;;5025655;28;87202;-42
2022/01/13 00:07:16;;;;;;;;;;;-1.80;78.30;;;;;;5025480;28;88951;-42
2022/01/13 00:09:43;;;;;;;;;;;-1.80;78.40;;;;;;5027660;28;89473;-42
2022/01/13 00:12:09;;;;;;;;;;;-1.80;78.30;;;;;;5025525;28;87372;-42
2022/01/13 00:22:13;;;;;;;;;;;-1.80;78.50;;;;;;5022476;28;88762;-42
2022/01/13 00:24:38;;;;;;;;;;;-1.80;78.40;;;;;;5025468;28;87096;-42
2022/01/13 00:27:10;;;;;;;;;;;-1.80;78.40;;;;;;5025398;28;88721;-42
2022/01/13 00:29:39;;;;;;;;;;;-1.80;78.60;;;;;;5024839;28;89432;-42
2022/01/13 00:32:05;;;;;;;;;;;-1.80;78.50;;;;;;5027909;28;87066;-42
2022/01/13 00:34:30;;;;;;;;;;;-1.90;78.50;;;;;;5024653;28;89445;-42
2022/01/13 00:36:58;;;;;;;;;;;-1.80;78.40;;;;;;5025070;28;87056;-42
2022/01/13 00:39:24;;;;;;;;;;;-1.80;78.30;;;;;;5025905;28;89160;-42
2022/01/13 00:41:49;;;;;;;;;;;-1.90;78.40;;;;;;5024012;28;88651;-42
2022/01/13 00:44:19;;;;;;;;;;;-1.80;78.40;;;;;;5025276;28;87148;-42
2022/01/13 00:46:47;;;;;;;;;;;-1.90;78.30;;;;;;5024328;28;87879;-42
2022/01/13 00:49:13;;;;;;;;;;;-1.80;78.20;;;;;;5024615;28;89282;-41
2022/01/13 00:51:40;;;;;;;;;;;-1.90;78.10;;;;;;5025031;28;87241;-41
2022/01/13 00:54:07;;;;;;;;;;;-1.90;78.10;;;;;;5027556;28;89402;-41
2022/01/13 00:56:33;;;;;;;;;;;-1.90;78.10;;;;;;5024794;28;87129;-41
2022/01/13 00:58:59;;;;;;;;;;;-1.90;78.10;;;;;;5024561;28;89003;-41
2022/01/13 01:01:25;;;;;;;;;;;-1.90;78.20;;;;;;5024487;28;89432;-41
2022/01/13 01:03:50;;;;;;;;;;;-1.90;78.10;;;;;;5024994;28;86350;-41
2022/01/13 01:06:16;;;;;;;;;;;-1.90;78.20;;;;;;5024654;28;88121;-41
2022/01/13 01:08:42;;;;;;;;;;;-1.90;78.20;;;;;;5024357;28;89125;-41
2022/01/13 01:11:08;;;;;;;;;;;-1.90;78.20;;;;;;5023915;28;88054;-41
2022/01/13 01:13:35;;;;;;;;;;;-1.90;78.20;;;;;;5024420;28;89848;-41
2022/01/13 01:16:05;;;;;;;;;;;-1.90;78.20;;;;;;5026968;28;89292;-41
2022/01/13 01:28:50;;;;;;;;;;;-1.90;78.00;;;;;;5024763;28;87270;-41
2022/01/13 01:31:17;;;;;;;;;;;-1.90;78.00;;;;;;5024202;28;87121;-41
2022/01/13 01:33:53;;;;;;;;;;;-2.00;78.00;;;;;;5024413;28;88956;-41
2022/01/13 01:36:19;;;;;;;;;;;-2.00;78.10;;;;;;5023174;28;90577;-41
2022/01/13 01:38:48;;;;;;;;;;;-2.00;78.10;;;;;;5026662;28;87045;-41
2022/01/13 01:41:13;;;;;;;;;;;-1.90;78.00;;;;;;5023269;28;87967;-41
2022/01/13 01:43:39;;;;;;;;;;;-1.90;77.90;;;;;;5024004;28;86873;-41
2022/01/13 01:46:04;;;;;;;;;;;-2.00;78.10;;;;;;5024016;28;88483;-41
2022/01/13 01:48:34;;;;;;;;;;;-2.00;78.10;;;;;;5023602;28;89278;-41
2022/01/13 01:51:00;;;;;;;;;;;-2.00;78.20;;;;;;5023799;28;87143;-41
2022/01/13 01:53:27;;;;;;;;;;;-2.00;78.00;;;;;;5024286;28;89043;-41
2022/01/13 01:55:55;;;;;;;;;;;-1.90;77.80;;;;;;5023538;28;89333;-41
2022/01/13 01:58:22;;;;;;;;;;;-2.00;77.80;;;;;;5026760;28;86816;-41
2022/01/13 02:00:47;;;;;;;;;;;-2.00;78.00;;;;;;5023100;28;88968;-41
2022/01/13 02:03:14;;;;;;;;;;;-2.00;77.80;;;;;;5023762;28;87114;-41
2022/01/13 02:05:40;;;;;;;;;;;-2.00;77.90;;;;;;5023807;28;88654;-41
2022/01/13 02:08:05;;;;;;;;;;;-2.00;77.80;;;;;;5023198;28;89192;-41
2022/01/13 02:10:31;;;;;;;;;;;-2.00;77.90;;;;;;5023808;28;87159;-41
2022/01/13 02:13:03;;;;;;;;;;;-2.00;78.00;;;;;;5023844;28;87309;-41
2022/01/13 02:17:55;;;;;;;;;;;-2.00;78.10;;;;;;5024317;28;86159;-41
2022/01/13 02:20:21;;;;;;;;;;;-2.10;78.10;;;;;;5026109;28;88115;-41
2022/01/13 02:22:46;;;;;;;;;;;-2.00;78.10;;;;;;5023317;28;87174;-41
2022/01/13 02:25:13;;;;;;;;;;;-2.10;78.00;;;;;;5022965;28;88685;-41
2022/01/13 02:27:38;;;;;;;;;;;-2.10;77.90;;;;;;5023000;28;89671;-41
2022/01/13 02:30:04;;;;;;;;;;;-2.10;77.90;;;;;;5023330;28;87333;-41
2022/01/13 02:32:30;;;;;;;;;;;-2.00;78.00;;;;;;5023386;28;89209;-41
2022/01/13 02:34:55;;;;;;;;;;;-2.10;78.00;;;;;;5022953;28;89428;-42
2022/01/13 02:37:21;;;;;;;;;;;-2.10;78.00;;;;;;5023206;28;87260;-42
2022/01/13 02:39:46;;;;;;;;;;;-2.10;78.10;;;;;;5023273;28;88673;-42
2022/01/13 02:42:13;;;;;;;;;;;-2.10;78.20;;;;;;5026156;28;88679;-42
2022/01/13 02:44:49;;;;;;;;;;;-2.10;78.20;;;;;;5023407;28;86752;-42
2022/01/13 02:47:34;;;;;;;;;;;-2.10;78.00;;;;;;5022843;28;89491;-42
2022/01/13 02:50:00;;;;;;;;;;;-2.10;78.00;;;;;;5022565;28;87904;-42
2022/01/13 02:52:25;;;;;;;;;;;-2.10;77.90;;;;;;5023079;28;89671;-42
2022/01/13 02:54:51;;;;;;;;;;;-2.10;77.80;;;;;;5022681;28;89908;-42
2022/01/13 02:57:16;;;;;;;;;;;-2.10;77.80;;;;;;5023117;28;87173;-42
2022/01/13 02:59:42;;;;;;;;;;;-2.10;77.80;;;;;;5022913;28;88838;-42
2022/01/13 03:02:07;;;;;;;;;;;-2.10;77.80;;;;;;5022727;28;89979;-42
2022/01/13 03:04:33;;;;;;;;;;;-2.10;77.90;;;;;;5025877;28;87149;-42
2022/01/13 03:06:58;;;;;;;;;;;-2.10;78.00;;;;;;5023017;28;87846;-42
2022/01/13 03:09:24;;;;;;;;;;;-2.10;77.80;;;;;;5022909;28;87272;-42
2022/01/13 03:11:50;;;;;;;;;;;-2.10;77.80;;;;;;5023130;28;87352;-42
2022/01/13 03:14:16;;;;;;;;;;;-2.20;77.70;;;;;;5021969;28;90363;-42
2022/01/13 03:16:42;;;;;;;;;;;-2.10;77.80;;;;;;5022836;28;87073;-42
2022/01/13 03:19:08;;;;;;;;;;;-2.20;77.70;;;;;;5022633;28;88008;-42
2022/01/13 03:21:34;;;;;;;;;;;-2.20;77.70;;;;;;5022365;28;89385;-42
2022/01/13 03:24:00;;;;;;;;;;;-2.10;77.80;;;;;;5022898;28;87146;-42
2022/01/13 03:26:25;;;;;;;;;;;-2.20;77.80;;;;;;5025247;28;88769;-42
2022/01/13 03:28:53;;;;;;;;;;;-2.20;77.80;;;;;;5022682;28;87113;-42
2022/01/13 03:31:20;;;;;;;;;;;-2.20;77.90;;;;;;5022975;28;89004;-42
2022/01/13 03:33:46;;;;;;;;;;;-2.20;77.90;;;;;;5021887;28;89780;-42
2022/01/13 03:36:11;;;;;;;;;;;-2.20;77.70;;;;;;5022676;28;87102;-42
2022/01/13 03:38:38;;;;;;;;;;;-2.20;77.90;;;;;;5020892;28;90502;-42
2022/01/13 03:41:03;;;;;;;;;;;-2.20;77.70;;;;;;5021858;28;88397;-42
2022/01/13 03:43:29;;;;;;;;;;;-2.20;77.70;;;;;;5023654;28;87101;-42
2022/01/13 03:45:55;;;;;;;;;;;-2.20;77.70;;;;;;5028665;28;88626;-42
2022/01/13 03:48:21;;;;;;;;;;;-2.30;77.80;;;;;;5025834;28;87104;-42
2022/01/13 03:50:46;;;;;;;;;;;-2.20;77.90;;;;;;5025620;28;87786;-42
2022/01/13 03:53:32;;;;;;;;;;;-2.30;78.00;;;;;;5025382;28;89493;-42
2022/01/13 03:56:03;;;;;;;;;;;-2.20;78.00;;;;;;5026061;28;86143;-42
2022/01/13 03:58:29;;;;;;;;;;;-2.30;78.00;;;;;;5025953;28;86820;-42
2022/01/13 04:01:13;;;;;;;;;;;-2.30;78.10;;;;;;5025128;28;89526;-42
2022/01/13 04:03:38;;;;;;;;;;;-2.30;78.00;;;;;;5025030;28;88130;-42
2022/01/13 04:06:27;;;;;;;;;;;-2.30;77.90;;;;;;5025607;28;89399;-42
2022/01/13 04:08:53;;;;;;;;;;;-2.30;78.00;;;;;;5028066;27;90374;-42
2022/01/13 04:11:22;;;;;;;;;;;-2.30;77.80;;;;;;5025379;28;88984;-42
2022/01/13 04:14:01;;;;;;;;;;;-2.30;78.00;;;;;;5025138;28;88073;-42
2022/01/13 04:16:27;;;;;;;;;;;-2.30;78.00;;;;;;5025704;28;87073;-42
2022/01/13 04:18:55;;;;;;;;;;;-2.30;78.10;;;;;;5025712;28;86857;-42
2022/01/13 04:21:21;;;;;;;;;;;-2.30;78.10;;;;;;5025461;28;88207;-42
2022/01/13 04:23:46;;;;;;;;;;;-2.40;78.10;;;;;;5025080;28;87162;-42
2022/01/13 04:26:15;;;;;;;;;;;-2.30;78.20;;;;;;5025319;28;88829;-42
2022/01/13 04:28:41;;;;;;;;;;;-2.30;78.10;;;;;;5024111;28;90549;-42
2022/01/13 04:31:06;;;;;;;;;;;-2.40;78.00;;;;;;5027900;28;86992;-41
2022/01/13 04:33:33;;;;;;;;;;;-2.30;78.00;;;;;;5024848;28;89030;-42
2022/01/13 04:35:59;;;;;;;;;;;-2.40;78.00;;;;;;5025117;28;87063;-42
2022/01/13 04:38:25;;;;;;;;;;;-2.40;78.10;;;;;;5025320;28;87343;-42
2022/01/13 04:40:55;;;;;;;;;;;-2.40;77.90;;;;;;5024086;28;89775;-42
2022/01/13 04:43:22;;;;;;;;;;;-2.40;78.00;;;;;;5024947;28;87056;-42
2022/01/13 04:45:50;;;;;;;;;;;-2.40;78.00;;;;;;5024166;28;90460;-42
2022/01/13 04:48:16;;;;;;;;;;;-2.40;78.10;;;;;;5024660;28;88177;-42
2022/01/13 04:50:42;;;;;;;;;;;-2.40;78.00;;;;;;5024808;28;86720;-42
2022/01/13 04:53:07;;;;;;;;;;;-2.40;77.90;;;;;;5026697;28;87928;-42
2022/01/13 04:55:35;;;;;;;;;;;-2.40;77.80;;;;;;5023745;28;87147;-42
2022/01/13 04:58:01;;;;;;;;;;;-2.40;77.90;;;;;;5024737;28;88871;-42
2022/01/13 05:00:27;;;;;;;;;;;-2.40;77.90;;;;;;5024421;28;89228;-42
2022/01/13 05:02:53;;;;;;;;;;;-2.40;78.10;;;;;;5024722;28;87450;-42
2022/01/13 05:05:19;;;;;;;;;;;-2.40;78.10;;;;;;5024748;28;88738;-42
2022/01/13 05:07:44;;;;;;;;;;;-2.40;78.30;;;;;;5024218;28;87663;-42
2022/01/13 05:10:10;;;;;;;;;;;-2.40;78.30;;;;;;5025251;28;86380;-42
2022/01/13 05:12:47;;;;;;;;;;;-2.40;78.20;;;;;;5024696;28;88064;-42
2022/01/13 05:15:18;;;;;;;;;;;-2.40;78.10;;;;;;5027167;28;88881;-42
2022/01/13 05:20:21;;;;;;;;;;;-2.40;78.10;;;;;;5024027;28;87973;-41
2022/01/13 05:22:48;;;;;;;;;;;-2.50;78.10;;;;;;5024485;28;87000;-42
2022/01/13 05:25:14;;;;;;;;;;;-2.50;78.10;;;;;;5024320;28;89115;-42
2022/01/13 05:27:40;;;;;;;;;;;-2.50;78.10;;;;;;5024299;28;87885;-42
2022/01/13 05:30:06;;;;;;;;;;;-2.40;78.00;;;;;;5024449;28;87169;-42
2022/01/13 05:32:32;;;;;;;;;;;-2.50;78.00;;;;;;5024409;28;87430;-42
2022/01/13 05:34:57;;;;;;;;;;;-2.50;78.00;;;;;;5024350;28;87727;-42
2022/01/13 05:37:23;;;;;;;;;;;-2.50;78.00;;;;;;5027119;28;87152;-42
2022/01/13 05:39:48;;;;;;;;;;;-2.50;78.10;;;;;;5023694;28;89686;-42
2022/01/13 05:42:14;;;;;;;;;;;-2.50;78.20;;;;;;5022802;28;88046;-42
2022/01/13 05:44:39;;;;;;;;;;;-2.50;78.20;;;;;;5024147;28;88710;-42
2022/01/13 05:47:06;;;;;;;;;;;-2.50;78.10;;;;;;5023736;28;89465;-42
2022/01/13 05:49:31;;;;;;;;;;;-2.50;78.20;;;;;;5023794;28;87209;-42
2022/01/13 05:51:57;;;;;;;;;;;-2.50;78.10;;;;;;5024017;28;89006;-42
2022/01/13 05:54:22;;;;;;;;;;;-2.50;78.10;;;;;;5023611;28;89469;-42
2022/01/13 05:56:48;;;;;;;;;;;-2.50;78.20;;;;;;5026602;28;87128;-42
2022/01/13 05:59:13;;;;;;;;;;;-2.50;78.10;;;;;;5024037;28;88640;-42
2022/01/13 06:01:39;;;;;;;;;;;-2.60;78.10;;;;;;5024001;28;87120;-42
2022/01/13 06:04:04;;;;;;;;;;;-2.50;78.10;;;;;;5023701;28;88885;-42
2022/01/13 06:06:30;;;;;;;;;;;-2.60;78.00;;;;;;5022279;28;90379;-42
2022/01/13 06:08:55;;;;;;;;;;;-2.60;78.10;;;;;;5023818;28;87160;-42
2022/01/13 06:11:23;;;;;;;;;;;-2.60;77.90;;;;;;5023555;28;89050;-42
2022/01/13 06:13:48;;;;;;;;;;;-2.60;78.00;;;;;;5023286;28;89587;-42
2022/01/13 06:16:14;;;;;;;;;;;-2.60;78.10;;;;;;5023603;28;87097;-42
2022/01/13 06:18:40;;;;;;;;;;;-2.60;78.10;;;;;;5026375;28;87168;-41
2022/01/13 06:21:05;;;;;;;;;;;-2.60;78.10;;;;;;5023574;28;87131;-42
2022/01/13 06:23:31;;;;;;;;;;;-2.60;78.10;;;;;;5023901;28;88722;-42
2022/01/13 06:25:57;;;;;;;;;;;-2.60;78.00;;;;;;5022920;28;89643;-41
2022/01/13 06:28:23;;;;;;;;;;;-2.60;78.10;;;;;;5023243;28;87167;-41
2022/01/13 06:30:49;;;;;;;;;;;-2.60;78.00;;;;;;5022795;28;87942;-41
2022/01/13 06:33:14;;;;;;;;;;;-2.60;78.10;;;;;;5022839;28;89070;-41
2022/01/13 06:35:40;;;;;;;;;;;-2.60;78.10;;;;;;5023131;28;87071;-41
2022/01/13 06:38:06;;;;;;;;;;;-2.60;78.10;;;;;;5023519;28;87252;-42
2022/01/13 06:40:32;;;;;;;;;;;-2.60;78.20;;;;;;5025661;28;89617;-42
2022/01/13 06:42:57;;;;;;;;;;;-2.60;78.10;;;;;;5023358;28;88789;-41
2022/01/13 06:45:23;;;;;;;;;;;-2.60;78.20;;;;;;5023024;28;88807;-42
2022/01/13 06:47:48;;;;;;;;;;;-2.60;78.10;;;;;;5023676;28;86398;-42
2022/01/13 06:50:14;;;;;;;;;;;-2.60;78.10;;;;;;5022916;28;88401;-41
2022/01/13 06:52:39;;;;;;;;;;;-2.60;78.00;;;;;;5022666;28;89453;-42
2022/01/13 06:55:05;;;;;;;;;;;-2.60;78.00;;;;;;5022469;28;88142;-42
2022/01/13 06:57:30;;;;;;;;;;;-2.70;77.90;;;;;;5023013;28;90004;-41
2022/01/13 06:59:56;;;;;;;;;;;-2.70;77.90;;;;;;5022682;28;89588;-41
2022/01/13 07:02:24;;;;;;;;;;;-2.60;78.00;;;;;;5025963;28;87115;-41
2022/01/13 07:04:49;;;;;;;;;;;-2.70;77.90;;;;;;5022503;28;88422;-41
2022/01/13 07:07:15;;;;;;;;;;;-2.70;78.00;;;;;;5023184;28;87218;-41
2022/01/13 07:09:41;;;;;;;;;;;-2.70;78.00;;;;;;5023080;28;89317;-42
2022/01/13 07:12:09;;;;;;;;;;;-2.70;78.10;;;;;;5022893;28;88707;-42
2022/01/13 07:14:34;;;;;;;;;;;-2.70;78.00;;;;;;5023000;28;86826;-42
2022/01/13 07:17:00;;;;;;;;;;;-2.70;78.00;;;;;;5022842;28;89454;-41
2022/01/13 07:19:26;;;;;;;;;;;-2.70;78.50;;;;;;5024101;28;90638;-42
2022/01/13 07:21:51;;;;;;;;;;;-2.70;77.90;;;;;;5026247;28;87145;-41
2022/01/13 07:24:17;;;;;;;;;;;-2.70;77.70;;;;;;5028912;28;89170;-41
2022/01/13 07:26:42;;;;;;;;;;;-2.70;77.80;;;;;;5026038;28;87103;-41
2022/01/13 07:29:08;;;;;;;;;;;-2.70;77.80;;;;;;5026234;28;88826;-41
2022/01/13 07:31:37;;;;;;;;;;;-2.70;78.00;;;;;;5025779;28;89454;-42
2022/01/13 07:34:04;;;;;;;;;;;-2.70;78.00;;;;;;5025978;28;87158;-41
2022/01/13 07:36:30;;;;;;;;;;;-2.80;77.90;;;;;;5026580;28;88792;-41
2022/01/13 07:38:55;;;;;;;;;;;-2.70;77.90;;;;;;5025870;28;88542;-41
2022/01/13 07:41:21;;;;;;;;;;;-2.80;77.90;;;;;;5025629;28;90203;-41
2022/01/13 07:43:53;;;;;;;;;;;-2.70;78.00;;;;;;5025328;28;87917;-42
2022/01/13 07:46:18;;;;;;;;;;;-2.80;77.90;;;;;;5028808;28;86966;-41
2022/01/13 07:48:44;;;;;;;;;;;-2.70;78.00;;;;;;5025927;28;87915;-41
2022/01/13 07:51:09;;;;;;;;;;;-2.70;78.00;;;;;;5025680;28;87975;-41
2022/01/13 07:53:35;;;;;;;;;;;-2.80;77.90;;;;;;5026051;28;87147;-41
2022/01/13 07:56:00;;;;;;;;;;;-2.80;77.90;;;;;;5025810;28;87847;-41
2022/01/13 07:58:26;;;;;;;;;;;-2.70;77.80;;;;;;5025159;28;89600;-41
2022/01/13 08:00:52;;;;;;;;;;;-2.80;77.80;;;;;;5026237;28;86403;-41
2022/01/13 08:03:18;;;;;;;;;;;-2.80;77.80;;;;;;5025677;28;88439;-41
2022/01/13 08:05:43;;;;;;;;;;;-2.80;77.80;;;;;;5027975;28;89636;-41
2022/01/13 08:08:09;;;;;;;;;;;-2.80;77.80;;;;;;5024902;28;89029;-41
2022/01/13 08:10:35;;;;;;;;;;;-2.80;77.70;;;;;;5025027;28;89523;-41
2022/01/13 08:13:01;;;;;;;;;;;-2.80;77.80;;;;;;5025444;28;87128;-41
2022/01/13 08:15:27;;;;;;;;;;;-2.80;77.70;;;;;;5025766;28;86839;-41
2022/01/13 08:20:37;;;;;;;;;;;-2.80;77.70;;;;;;5023431;28;86899;-41
2022/01/13 08:23:02;;;;;;;;;;;-2.80;77.70;;;;;;5025422;28;88745;-41
2022/01/13 08:25:29;;;;;;;;;;;-2.80;77.80;;;;;;5025407;28;88857;-41
2022/01/13 08:27:55;;;;;;;;;;;-2.80;77.80;;;;;;5028404;28;87080;-41
2022/01/13 08:30:20;;;;;;;;;;;-2.80;77.80;;;;;;5024761;28;89621;-41
2022/01/13 08:32:46;;;;;;;;;;;-2.80;77.80;;;;;;5024378;28;87927;-41
2022/01/13 08:35:12;;;;;;;;;;;-2.80;77.60;;;;;;5025344;28;89830;-41
2022/01/13 08:37:38;;;;;;;;;;;-2.90;77.70;;;;;;5024803;28;89774;-41
2022/01/13 08:40:05;;;;;;;;;;;-2.80;77.80;;;;;;5025284;28;87161;-41
2022/01/13 08:42:32;;;;;;;;;;;-2.90;77.70;;;;;;5024676;28;89295;-41
2022/01/13 08:44:58;;;;;;;;;;;-2.90;77.70;;;;;;5024588;28;89389;-41
2022/01/13 08:47:23;;;;;;;;;;;-2.80;77.70;;;;;;5024774;28;87201;-41
2022/01/13 08:49:49;;;;;;;;;;;-2.80;77.70;;;;;;5028257;28;87909;-41
2022/01/13 08:52:14;;;;;;;;;;;-2.90;77.60;;;;;;5024876;28;87128;-41
2022/01/13 08:54:45;;;;;;;;;;;-2.90;77.60;;;;;;5024857;28;88921;-41
2022/01/13 08:57:11;;;;;;;;;;;-2.90;77.60;;;;;;5023762;28;90997;-41
2022/01/13 08:59:36;;;;;;;;;;;-2.90;77.50;;;;;;5024644;28;87328;-41
2022/01/13 09:02:02;;;;;;;;;;;-2.90;77.50;;;;;;5024718;28;87412;-41
2022/01/13 09:04:28;;;;;;;;;;;-2.90;77.50;;;;;;5024369;28;90753;-41
2022/01/13 09:06:53;;;;;;;;;;;-2.90;77.40;;;;;;5024518;28;86978;-41
2022/01/13 09:09:19;;;;;;;;;;;-2.90;77.40;;;;;;5024639;28;88889;-41
2022/01/13 09:11:44;;;;;;;;;;;-2.90;77.30;;;;;;5027127;28;89833;-41
2022/01/13 09:14:10;;;;;;;;;;;-2.90;77.40;;;;;;5025017;28;88914;-41
2022/01/13 09:16:43;;;;;;;;;;;-2.90;77.40;;;;;;5024318;28;88245;-42
2022/01/13 09:19:11;;;;;;;;;;;-2.90;77.40;;;;;;5024828;28;87100;-41
2022/01/13 09:21:38;;;;;;;;;;;-2.90;77.50;;;;;;5023890;28;88845;-41
2022/01/13 09:24:05;;;;;;;;;;;-2.90;77.50;;;;;;5024094;28;89225;-41
2022/01/13 09:26:31;;;;;;;;;;;-2.90;77.50;;;;;;5024320;28;87130;-41
2022/01/13 09:28:56;;;;;;;;;;;-2.90;77.40;;;;;;5024515;28;88057;-41
2022/01/13 09:31:22;;;;;;;;;;;-2.90;77.40;;;;;;5023747;28;89887;-41
2022/01/13 09:33:48;;;;;;;;;;;-2.90;77.40;;;;;;5027263;28;87170;-41
2022/01/13 09:36:15;;;;;;;;;;;-2.90;77.30;;;;;;5023929;28;89210;-41
2022/01/13 09:38:41;;;;;;;;;;;-2.90;77.50;;;;;;5024810;28;86373;-41
2022/01/13 09:41:06;;;;;;;;;;;-2.90;77.50;;;;;;5022520;28;88321;-41
2022/01/13 09:43:32;;;;;;;;;;;-2.90;77.60;;;;;;5023772;28;89482;-41
2022/01/13 09:45:58;;;;;;;;;;;-2.90;77.70;;;;;;5023371;28;88100;-41
2022/01/13 09:48:26;;;;;;;;;;;-2.90;78.30;;;;;;5023950;28;89896;-41
2022/01/13 09:50:52;;;;;;;;;;;-2.90;77.70;;;;;;5023376;28;89193;-41
2022/01/13 09:53:18;;;;;;;;;;;-2.90;77.50;;;;;;5023817;28;86880;-41
2022/01/13 09:55:44;;;;;;;;;;;-2.90;77.50;;;;;;5026855;28;87339;-41
2022/01/13 09:58:10;;;;;;;;;;;-2.90;77.40;;;;;;5024019;28;87052;-41
2022/01/13 10:00:37;;;;;;;;;;;-2.90;77.50;;;;;;5023655;28;87781;-41
2022/01/13 10:03:23;;;;;;;;;;;-2.90;77.40;;;;;;5023982;28;89232;-41
2022/01/13 10:05:52;;;;;;;;;;;-2.90;77.40;;;;;;5024044;28;87000;-41
2022/01/13 10:08:22;;;;;;;;;;;-2.90;77.60;;;;;;5023764;28;88741;-41
2022/01/13 10:10:48;;;;;;;;;;;-2.90;77.70;;;;;;5022305;28;90521;-41
2022/01/13 10:13:22;;;;;;;;;;;-2.90;77.70;;;;;;5023924;28;87105;-41
2022/01/13 10:18:36;;;;;;;;;;;-2.90;77.70;;;;;;5024002;28;86868;-41
2022/01/13 10:21:06;;;;;;;;;;;-2.90;77.80;;;;;;5023550;28;88861;-41
2022/01/13 10:23:31;;;;;;;;;;;-2.90;77.80;;;;;;5023064;28;88634;-41
2022/01/13 10:26:06;;;;;;;;;;;-2.90;77.70;;;;;;5023344;28;87151;-41
2022/01/13 10:28:32;;;;;;;;;;;-3.00;77.60;;;;;;5023860;27;87722;-41
2022/01/13 10:30:57;;;;;;;;;;;-2.90;77.60;;;;;;5022955;28;90044;-41
2022/01/13 10:33:24;;;;;;;;;;;-3.00;77.60;;;;;;5023535;28;86771;-41
2022/01/13 10:35:51;;;;;;;;;;;-2.90;77.50;;;;;;5022845;28;88892;-41
2022/01/13 10:38:17;;;;;;;;;;;-2.90;77.50;;;;;;5025837;28;89769;-41
2022/01/13 10:40:47;;;;;;;;;;;-2.90;77.50;;;;;;5023034;28;88768;-42
2022/01/13 10:43:15;;;;;;;;;;;-2.90;77.50;;;;;;5022883;28;89478;-41
2022/01/13 10:45:48;;;;;;;;;;;-2.90;77.60;;;;;;5023474;28;87197;-41
2022/01/13 10:48:18;;;;;;;;;;;-3.00;77.70;;;;;;5023185;28;87910;-41
2022/01/13 10:50:46;;;;;;;;;;;-2.90;77.70;;;;;;5022426;28;88446;-41
2022/01/13 10:53:16;;;;;;;;;;;-2.90;77.70;;;;;;5024189;28;86395;-41
2022/01/13 10:55:44;;;;;;;;;;;-2.90;77.60;;;;;;5026893;28;88267;-41
2022/01/13 10:58:11;;;;;;;;;;;-2.90;77.70;;;;;;5026178;28;88646;-41
2022/01/13 11:00:37;;;;;;;;;;;-2.90;77.60;;;;;;5029155;28;88077;-41
2022/01/13 11:03:02;;;;;;;;;;;-3.00;77.70;;;;;;5026267;28;89331;-41
2022/01/13 11:05:28;;;;;;;;;;;-2.90;77.90;;;;;;5026711;28;87183;-41
2022/01/13 11:07:54;;;;;;;;;;;-3.00;77.90;;;;;;5026560;28;88857;-41
2022/01/13 11:10:20;;;;;;;;;;;-3.00;78.00;;;;;;5026001;28;89244;-41
2022/01/13 11:12:54;;;;;;;;;;;-3.00;78.10;;;;;;5026511;28;87013;-41
2022/01/13 11:15:20;;;;;;;;;;;-2.90;78.10;;;;;;5026582;28;87833;-41
2022/01/13 11:17:46;;;;;;;;;;;-2.90;78.10;;;;;;5026547;28;86488;-41
2022/01/13 11:20:12;;;;;;;;;;;-2.90;78.00;;;;;;5026600;28;87026;-41
2022/01/13 11:22:39;;;;;;;;;;;-3.00;77.90;;;;;;5028911;28;88830;-41
2022/01/13 11:25:06;;;;;;;;;;;-3.00;78.10;;;;;;5025718;28;88079;-41
2022/01/13 11:27:33;;;;;;;;;;;-3.00;78.20;;;;;;5025975;28;89816;-41
2022/01/13 11:29:59;;;;;;;;;;;-3.00;78.10;;;;;;5025779;28;89871;-41
2022/01/13 11:32:25;;;;;;;;;;;-3.00;78.20;;;;;;5025974;28;87213;-41
2022/01/13 11:34:51;;;;;;;;;;;-3.00;78.30;;;;;;5026283;28;88923;-41
2022/01/13 11:37:17;;;;;;;;;;;-3.00;78.20;;;;;;5025804;28;89305;-41
2022/01/13 11:39:43;;;;;;;;;;;-3.00;78.20;;;;;;5026363;28;87104;-41
2022/01/13 11:42:11;;;;;;;;;;;-3.00;78.30;;;;;;5026082;28;88788;-41
2022/01/13 11:44:37;;;;;;;;;;;-3.00;78.30;;;;;;5028401;28;88996;-41
2022/01/13 11:47:08;;;;;;;;;;;-3.00;78.40;;;;;;5025859;28;89034;-41
2022/01/13 11:52:15;;;;;;;;;;;-3.00;78.50;;;;;;5023921;28;86972;-41
2022/01/13 11:54:41;;;;;;;;;;;-3.00;78.50;;;;;;5026053;28;89146;-41
2022/01/13 11:57:12;;;;;;;;;;;-3.00;78.40;;;;;;5025429;28;89259;-41
2022/01/13 11:59:38;;;;;;;;;;;-3.00;78.50;;;;;;5025496;28;87236;-41
2022/01/13 12:02:39;;;;;;;;;;;-3.00;78.40;;;;;;5025738;28;88700;-41
2022/01/13 12:05:06;;;;;;;;;;;-3.00;78.50;;;;;;5042689;27;88072;-41
2022/01/13 12:07:38;;;;;;;;;;;-3.00;78.40;;;;;;5032334;28;86261;-41
2022/01/13 12:10:05;;;;;;;;;;;-3.00;78.40;;;;;;5025242;28;89639;-41
2022/01/13 12:12:32;;;;;;;;;;;-3.00;78.50;;;;;;5025518;28;87144;-41
2022/01/13 12:15:16;;;;;;;;;;;-3.00;78.50;;;;;;5024834;28;88858;-41
2022/01/13 12:17:51;;;;;;;;;;;-3.00;78.40;;;;;;5025052;28;89362;-41
2022/01/13 12:20:19;;;;;;;;;;;-3.00;78.30;;;;;;5025298;28;87068;-41
2022/01/13 12:22:54;;;;;;;;;;;-3.00;78.20;;;;;;5025167;28;88380;-41
2022/01/13 12:25:20;;;;;;;;;;;-3.00;78.20;;;;;;5025038;28;89881;-41
2022/01/13 12:27:47;;;;;;;;;;;-2.90;78.10;;;;;;5028584;28;87507;-41
2022/01/13 12:30:29;;;;;;;;;;;-3.00;78.10;;;;;;5024909;28;89064;-41
2022/01/13 12:32:55;;;;;;;;;;;-3.00;78.30;;;;;;5025934;28;86401;-41
2022/01/13 12:35:20;;;;;;;;;;;-3.00;78.20;;;;;;5025551;28;88058;-41
2022/01/13 12:37:58;;;;;;;;;;;-3.00;78.20;;;;;;5024810;28;89487;-41
2022/01/13 12:40:25;;;;;;;;;;;-2.90;78.50;;;;;;5024643;28;87910;-42
2022/01/13 12:42:52;;;;;;;;;;;-3.00;78.30;;;;;;5025183;28;89820;-41
2022/01/13 12:45:29;;;;;;;;;;;-3.00;78.30;;;;;;5024828;28;89869;-41
2022/01/13 12:47:59;;;;;;;;;;;-3.00;78.20;;;;;;5024934;28;87123;-41
2022/01/13 12:50:26;;;;;;;;;;;-3.00;78.10;;;;;;5027436;28;89004;-41
2022/01/13 12:52:56;;;;;;;;;;;-3.00;78.40;;;;;;5024763;28;86877;-41
2022/01/13 12:55:22;;;;;;;;;;;-3.00;78.40;;;;;;5024963;28;89058;-41
2022/01/13 12:57:49;;;;;;;;;;;-3.00;78.20;;;;;;5024993;28;88890;-41
2022/01/13 13:00:15;;;;;;;;;;;-2.90;78.30;;;;;;5024598;28;87119;-41
2022/01/13 13:02:51;;;;;;;;;;;-3.00;78.20;;;;;;5024772;28;90448;-41
2022/01/13 13:05:27;;;;;;;;;;;-3.00;78.20;;;;;;5023835;28;89447;-41
2022/01/13 13:07:52;;;;;;;;;;;-2.90;78.10;;;;;;5024605;28;87109;-41
2022/01/13 13:10:18;;;;;;;;;;;-3.00;78.10;;;;;;5024784;28;87464;-41
2022/01/13 13:12:49;;;;;;;;;;;-3.00;78.00;;;;;;5027105;28;89559;-41
2022/01/13 13:17:46;;;;;;;;;;;-2.90;78.00;;;;;;5023755;28;88070;-41
2022/01/13 13:20:25;;;;;;;;;;;-3.00;77.90;;;;;;5024597;28;87110;-41
2022/01/13 13:22:54;;;;;;;;;;;-3.00;78.00;;;;;;5024881;28;89364;-41
2022/01/13 13:25:26;;;;;;;;;;;-3.00;78.10;;;;;;5023729;28;89414;-41
2022/01/13 13:27:51;;;;;;;;;;;-3.00;78.10;;;;;;5024297;28;87076;-41
2022/01/13 13:30:17;;;;;;;;;;;-3.00;78.10;;;;;;5023895;28;87990;-41
2022/01/13 13:32:49;;;;;;;;;;;-2.90;78.10;;;;;;5023783;28;88840;-41
2022/01/13 13:35:15;;;;;;;;;;;-2.90;78.10;;;;;;5027154;28;87091;-41
2022/01/13 13:37:47;;;;;;;;;;;-2.90;78.20;;;;;;5023738;28;89412;-41
2022/01/13 13:40:22;;;;;;;;;;;-2.90;78.20;;;;;;5024294;28;87125;-41
2022/01/13 13:43:03;;;;;;;;;;;-3.00;78.10;;;;;;5024461;28;87418;-41
2022/01/13 13:45:29;;;;;;;;;;;-2.90;78.10;;;;;;5023810;28;88019;-41
2022/01/13 13:47:58;;;;;;;;;;;-3.00;78.20;;;;;;5024652;28;86349;-41
2022/01/13 13:50:24;;;;;;;;;;;-3.00;78.30;;;;;;5023704;28;88308;-41
2022/01/13 13:53:05;;;;;;;;;;;-2.90;78.40;;;;;;5023712;28;89812;-41
2022/01/13 13:55:31;;;;;;;;;;;-3.00;78.40;;;;;;5023241;28;88100;-41
2022/01/13 13:57:56;;;;;;;;;;;-2.90;78.40;;;;;;5026487;28;89950;-41
2022/01/13 14:00:26;;;;;;;;;;;-3.00;78.40;;;;;;5024111;28;86887;-41
2022/01/13 14:02:53;;;;;;;;;;;-2.90;78.40;;;;;;5023707;28;88601;-41
2022/01/13 14:05:21;;;;;;;;;;;-3.00;78.40;;;;;;5023317;28;89330;-41
2022/01/13 14:07:48;;;;;;;;;;;-3.00;78.30;;;;;;5023710;28;87143;-41
2022/01/13 14:10:16;;;;;;;;;;;-2.90;78.30;;;;;;5023776;28;89008;-41
2022/01/13 14:12:45;;;;;;;;;;;-2.90;78.40;;;;;;5023739;28;88691;-41
2022/01/13 14:15:19;;;;;;;;;;;-2.90;78.50;;;;;;5023755;28;86919;-41
2022/01/13 14:17:47;;;;;;;;;;;-3.00;78.40;;;;;;5026118;28;88941;-41
2022/01/13 14:20:17;;;;;;;;;;;-2.90;78.50;;;;;;5022949;28;88094;-41
2022/01/13 14:22:43;;;;;;;;;;;-2.90;78.50;;;;;;5023428;28;89525;-41
2022/01/13 14:25:09;;;;;;;;;;;-2.90;78.70;;;;;;5023326;28;89342;-41
2022/01/13 14:27:48;;;;;;;;;;;-2.90;78.60;;;;;;5023142;28;87096;-41
2022/01/13 14:30:23;;;;;;;;;;;-2.90;78.70;;;;;;5023358;28;88216;-41
2022/01/13 14:32:48;;;;;;;;;;;-2.90;78.70;;;;;;5023097;28;88664;-41
2022/01/13 14:35:14;;;;;;;;;;;-2.90;78.80;;;;;;5022296;28;87317;-41
2022/01/13 14:37:52;;;;;;;;;;;-2.90;78.80;;;;;;5023973;28;87775;-41
2022/01/13 14:40:18;;;;;;;;;;;-2.90;78.70;;;;;;5025886;28;89867;-41
2022/01/13 14:42:45;;;;;;;;;;;-2.90;78.60;;;;;;5023194;28;87383;-41
2022/01/13 14:45:15;;;;;;;;;;;-2.90;78.80;;;;;;5022153;28;90290;-41
2022/01/13 14:47:40;;;;;;;;;;;-2.90;78.80;;;;;;5023346;28;87159;-41
2022/01/13 14:50:06;;;;;;;;;;;-2.90;78.70;;;;;;5023403;28;88945;-41
2022/01/13 14:52:31;;;;;;;;;;;-2.90;78.80;;;;;;5022563;28;89635;-41